Main page
METAR-TAF:

METAR-TAF

Airports :

Cascais Municipal Aerodrome

Cascais, Portugal

latitude: 38-43-32N, longitude: 009-21-19W, elevation: 99 m

Current weather observation

The report was made 19 minutes ago, at 07:00 UTC
Wind 11 kt from the North/Northwest
Temperature 18°C
Humidity 94%
Pressure 1013 hPa
Visibility 10 km or more
Few clouds at a height of 1400 ft

METAR: LPCS 130700Z 34011KT 9999 FEW014 18/17 Q1013

Time: 08:19 (07:19 UTC)

Forecast

The report was made 49 minutes ago, at 06:30 UTC
Forecast valid from 13 at 06 UTC to 13 at 15 UTC
Wind 2 kt from variable directions
Visibility 10 km or more
Scattered clouds at a height of 1300 ft
Becoming
from 13 at 08 UTC to 13 at 11 UTC
Wind 13 kt from the North/Northwest
Few clouds at a height of 1800 ft

TAF: LPCS 130630Z 1306/1315 VRB02KT 9999 SCT013 BECMG 1308/1311 33013KT FEW018

Weather observations and forecasts of more than 4000 airports (METAR and TAF reports).

The available stations are represented by yellow and red dots on the map.

Hover mouse over dot to see the name of the station.

Then click to see weather observations and forecasts.

To change the map : click on the green buttons with a black cross to zoom in, on the green button with a dash to zoom out, or on the green arrows for adjacent maps.


METAR-TAF: